createdAt,value
2018-11-03T00:00:40.102Z,0
2018-11-03T00:01:49.861Z,0
2018-11-03T00:02:59.594Z,0
2018-11-03T00:04:09.321Z,0
2018-11-03T00:05:18.580Z,0
2018-11-03T00:06:28.313Z,0
2018-11-03T00:07:37.788Z,0
2018-11-03T00:08:47.281Z,0
2018-11-03T00:09:56.729Z,0
2018-11-03T00:11:06.746Z,0
2018-11-03T00:12:16.485Z,0
2018-11-03T00:13:26.225Z,0
2018-11-03T00:14:35.967Z,0
2018-11-03T00:15:45.692Z,0
2018-11-03T00:16:55.695Z,0
2018-11-03T00:18:05.166Z,0
2018-11-03T00:19:15.175Z,0
2018-11-03T00:20:24.099Z,0
2018-11-03T00:21:34.079Z,0
2018-11-03T00:22:44.071Z,0
2018-11-03T00:23:54.405Z,0
2018-11-03T00:25:04.764Z,0
2018-11-03T00:26:14.755Z,0
2018-11-03T00:27:24.530Z,0
2018-11-03T00:28:33.916Z,0
2018-11-03T00:29:43.634Z,0
2018-11-03T00:30:53.333Z,0
2018-11-03T00:32:03.316Z,0
2018-11-03T00:33:12.780Z,0
2018-11-03T00:34:22.740Z,0
2018-11-03T00:35:32.740Z,0
2018-11-03T00:36:42.728Z,0
2018-11-03T00:37:52.186Z,0
2018-11-03T00:39:02.171Z,0
2018-11-03T00:40:11.372Z,0
2018-11-03T00:41:20.830Z,0
2018-11-03T00:42:30.826Z,0
2018-11-03T00:43:40.585Z,0
2018-11-03T00:44:50.592Z,0
2018-11-03T00:46:00.567Z,0
2018-11-03T00:47:10.045Z,0
2018-11-03T00:48:20.065Z,0
2018-11-03T00:49:30.517Z,0
2018-11-03T00:50:40.397Z,0
2018-11-03T00:51:50.145Z,0
2018-11-03T00:52:59.869Z,0
2018-11-03T00:54:09.570Z,0
2018-11-03T00:55:19.554Z,0
2018-11-03T00:56:29.277Z,0
2018-11-03T00:57:38.998Z,0
2018-11-03T00:58:48.969Z,0
2018-11-03T00:59:58.426Z,0
2018-11-03T01:01:08.169Z,0
2018-11-03T01:02:18.209Z,0
2018-11-03T01:03:28.199Z,0
2018-11-03T01:04:38.172Z,0
2018-11-03T01:05:47.879Z,0
2018-11-03T01:06:57.348Z,0
2018-11-03T01:08:07.058Z,0
2018-11-03T01:09:17.034Z,0
2018-11-03T01:10:26.484Z,0
2018-11-03T01:11:36.460Z,0
2018-11-03T01:12:46.189Z,0
2018-11-03T01:13:57.081Z,0
2018-11-03T01:15:07.865Z,0
2018-11-03T01:16:17.306Z,0
2018-11-03T01:17:27.294Z,0
2018-11-03T01:18:37.300Z,0
2018-11-03T01:19:47.314Z,0
2018-11-03T01:20:57.300Z,0
2018-11-03T01:22:07.273Z,0
2018-11-03T01:23:17.012Z,0
2018-11-03T01:24:26.989Z,0
2018-11-03T01:25:36.692Z,0
2018-11-03T01:26:46.184Z,0
2018-11-03T01:27:55.623Z,0
2018-11-03T01:29:05.360Z,0
2018-11-03T01:30:15.336Z,0
2018-11-03T01:31:25.129Z,0
2018-11-03T01:32:35.227Z,0
2018-11-03T01:33:45.505Z,0
2018-11-03T01:34:54.954Z,0
2018-11-03T01:36:04.409Z,0
2018-11-03T01:37:14.952Z,0
2018-11-03T01:38:25.611Z,0
2018-11-03T01:39:35.606Z,0
2018-11-03T01:40:45.369Z,0
2018-11-03T01:41:54.595Z,0
2018-11-03T01:43:04.597Z,0
2018-11-03T01:44:14.301Z,0
2018-11-03T01:45:24.290Z,0
2018-11-03T01:46:33.467Z,0
2018-11-03T01:47:43.470Z,0
2018-11-03T01:48:53.190Z,0
2018-11-03T01:50:02.660Z,0
2018-11-03T01:51:12.686Z,0
2018-11-03T01:52:22.638Z,0
2018-11-03T01:53:32.644Z,0
2018-11-03T01:54:42.353Z,0
2018-11-03T01:55:51.802Z,0
2018-11-03T01:57:01.236Z,0
2018-11-03T01:58:10.964Z,0
2018-11-03T01:59:20.405Z,0
2018-11-03T02:00:30.427Z,0
2018-11-03T02:01:40.680Z,0
2018-11-03T02:02:51.038Z,0
2018-11-03T02:04:00.643Z,0
2018-11-03T02:05:10.364Z,0
2018-11-03T02:06:20.085Z,0
2018-11-03T02:07:30.071Z,0
2018-11-03T02:08:39.538Z,0
2018-11-03T02:09:49.227Z,0
2018-11-03T02:10:59.205Z,0
2018-11-03T02:12:09.178Z,0
2018-11-03T02:13:18.886Z,0
2018-11-03T02:14:28.872Z,0
2018-11-03T02:15:38.606Z,0
2018-11-03T02:16:48.311Z,0
2018-11-03T02:17:58.286Z,0
2018-11-03T02:19:08.256Z,0
2018-11-03T02:20:17.692Z,0
2018-11-03T02:21:27.434Z,0
2018-11-03T02:22:37.422Z,0
2018-11-03T02:23:47.163Z,0
2018-11-03T02:24:57.660Z,0
2018-11-03T02:26:07.809Z,0
2018-11-03T02:27:17.527Z,0
2018-11-03T02:28:26.970Z,0
2018-11-03T02:29:36.957Z,0
2018-11-03T02:30:46.955Z,0
2018-11-03T02:31:57.001Z,0
2018-11-03T02:33:06.710Z,0
2018-11-03T02:34:16.167Z,0
2018-11-03T02:35:25.892Z,0
2018-11-03T02:36:35.094Z,0
2018-11-03T02:37:45.083Z,0
2018-11-03T02:38:54.809Z,0
2018-11-03T02:40:04.515Z,0
2018-11-03T02:41:14.215Z,0
2018-11-03T02:42:23.649Z,0
2018-11-03T02:43:33.624Z,0
2018-11-03T02:44:43.336Z,0
2018-11-03T02:45:52.794Z,0
2018-11-03T02:47:02.513Z,0
2018-11-03T02:48:12.297Z,0
2018-11-03T02:49:22.485Z,0
2018-11-03T02:50:33.013Z,0
2018-11-03T02:51:42.769Z,0
2018-11-03T02:52:52.751Z,0
2018-11-03T02:54:02.212Z,0
2018-11-03T02:55:12.212Z,0
2018-11-03T02:56:21.943Z,0
2018-11-03T02:57:31.917Z,0
2018-11-03T02:58:41.384Z,0
2018-11-03T02:59:51.097Z,0
2018-11-03T03:01:00.879Z,0
2018-11-03T03:02:10.913Z,0
2018-11-03T03:03:20.912Z,0
2018-11-03T03:04:30.928Z,0
2018-11-03T03:05:40.430Z,0
2018-11-03T03:06:50.100Z,0
2018-11-03T03:08:00.082Z,0
2018-11-03T03:09:09.830Z,0
2018-11-03T03:10:19.527Z,0
2018-11-03T03:11:29.497Z,0
2018-11-03T03:12:39.616Z,0
2018-11-03T03:13:50.013Z,0
2018-11-03T03:14:59.971Z,0
2018-11-03T03:16:09.693Z,0
2018-11-03T03:17:19.672Z,0
2018-11-03T03:18:29.379Z,0
2018-11-03T03:19:39.361Z,0
2018-11-03T03:20:49.345Z,0
2018-11-03T03:21:59.065Z,0
2018-11-03T03:23:08.822Z,0
2018-11-03T03:24:18.799Z,0
2018-11-03T03:25:28.242Z,0
2018-11-03T03:26:37.693Z,0
2018-11-03T03:27:47.693Z,0
2018-11-03T03:28:56.937Z,0
2018-11-03T03:30:06.164Z,0
2018-11-03T03:31:16.287Z,0
2018-11-03T03:32:26.004Z,0
2018-11-03T03:33:35.693Z,0
2018-11-03T03:34:45.663Z,0
2018-11-03T03:35:55.669Z,0
2018-11-03T03:37:05.663Z,0
2018-11-03T03:38:16.476Z,0
2018-11-03T03:39:26.674Z,0
2018-11-03T03:40:36.703Z,0
2018-11-03T03:41:46.668Z,0
2018-11-03T03:42:56.657Z,0
2018-11-03T03:44:06.641Z,0
2018-11-03T03:45:16.092Z,0
2018-11-03T03:46:25.531Z,0
2018-11-03T03:47:35.537Z,0
2018-11-03T03:48:45.243Z,0
2018-11-03T03:49:55.228Z,0
2018-11-03T03:51:04.944Z,0
2018-11-03T03:52:14.690Z,0
2018-11-03T03:53:24.675Z,0
2018-11-03T03:54:34.650Z,0
2018-11-03T03:55:44.394Z,0
2018-11-03T03:56:53.846Z,0
2018-11-03T03:58:03.542Z,0
2018-11-03T03:59:13.520Z,0
2018-11-03T04:00:23.255Z,0
2018-11-03T04:01:33.268Z,0
2018-11-03T04:02:43.060Z,0
2018-11-03T04:03:53.245Z,0
2018-11-03T04:05:03.483Z,0
2018-11-03T04:06:13.460Z,0
2018-11-03T04:07:23.429Z,0
2018-11-03T04:08:32.918Z,0
2018-11-03T04:09:42.624Z,0
2018-11-03T04:10:52.332Z,0
2018-11-03T04:12:02.322Z,0
2018-11-03T04:13:12.047Z,0
2018-11-03T04:14:21.494Z,0
2018-11-03T04:15:31.476Z,0
2018-11-03T04:16:41.499Z,0
2018-11-03T04:17:50.958Z,0
2018-11-03T04:19:00.679Z,0
2018-11-03T04:20:10.392Z,0
2018-11-03T04:21:20.202Z,0
2018-11-03T04:22:29.922Z,0
2018-11-03T04:23:39.902Z,0
2018-11-03T04:24:49.873Z,0
2018-11-03T04:25:59.592Z,0
2018-11-03T04:27:09.077Z,0
2018-11-03T04:28:19.274Z,0
2018-11-03T04:29:30.360Z,0
2018-11-03T04:30:40.740Z,0
2018-11-03T04:31:50.586Z,0
2018-11-03T04:33:00.579Z,0
2018-11-03T04:34:10.309Z,0
2018-11-03T04:35:20.298Z,0
2018-11-03T04:36:30.265Z,0
2018-11-03T04:37:39.497Z,0
2018-11-03T04:38:48.938Z,0
2018-11-03T04:39:58.401Z,0
2018-11-03T04:41:07.579Z,0
2018-11-03T04:42:17.305Z,0
2018-11-03T04:43:27.011Z,0
2018-11-03T04:44:36.736Z,0
2018-11-03T04:45:46.877Z,0
2018-11-03T04:46:56.597Z,0
2018-11-03T04:48:06.584Z,0
2018-11-03T04:49:16.563Z,0
2018-11-03T04:50:26.568Z,0
2018-11-03T04:51:36.026Z,0
2018-11-03T04:52:45.752Z,0
2018-11-03T04:53:56.144Z,0
2018-11-03T04:55:07.131Z,0
2018-11-03T04:56:17.325Z,0
2018-11-03T04:57:26.486Z,0
2018-11-03T04:58:35.952Z,0
2018-11-03T04:59:45.670Z,0
2018-11-03T05:00:55.666Z,0
2018-11-03T05:02:05.117Z,0
2018-11-03T05:03:14.847Z,0
2018-11-03T05:04:24.843Z,0
2018-11-03T05:05:34.637Z,0
2018-11-03T05:06:44.418Z,0
2018-11-03T05:07:54.147Z,0
2018-11-03T05:09:03.583Z,0
2018-11-03T05:10:13.802Z,0
2018-11-03T05:11:23.190Z,0
2018-11-03T05:12:32.364Z,0
2018-11-03T05:13:42.160Z,0
2018-11-03T05:14:52.177Z,0
2018-11-03T05:16:02.152Z,0
2018-11-03T05:17:11.851Z,0
2018-11-03T05:18:21.338Z,0
2018-11-03T05:19:32.292Z,0
2018-11-03T05:20:42.608Z,0
2018-11-03T05:21:52.059Z,0
2018-11-03T05:23:01.538Z,0
2018-11-03T05:24:10.975Z,0
2018-11-03T05:25:20.710Z,0
2018-11-03T05:26:30.151Z,0
2018-11-03T05:27:40.188Z,0
2018-11-03T05:28:49.906Z,0
2018-11-03T05:29:59.351Z,0
2018-11-03T05:31:09.393Z,0
2018-11-03T05:32:19.645Z,0
2018-11-03T05:33:29.621Z,0
2018-11-03T05:34:39.625Z,0
2018-11-03T05:35:49.333Z,4
2018-11-03T05:36:58.781Z,4
2018-11-03T05:38:08.743Z,4
2018-11-03T05:39:18.480Z,4
2018-11-03T05:40:28.194Z,8
2018-11-03T05:41:38.515Z,8
2018-11-03T05:42:48.762Z,12
2018-11-03T05:43:58.998Z,12
2018-11-03T05:45:08.535Z,16
2018-11-03T05:46:18.054Z,16
2018-11-03T05:47:28.217Z,20
2018-11-03T05:48:37.674Z,24
2018-11-03T05:49:47.391Z,32
2018-11-03T05:50:56.841Z,40
2018-11-03T05:52:06.805Z,44
2018-11-03T05:53:16.540Z,52
2018-11-03T05:54:26.519Z,60
2018-11-03T05:55:36.527Z,68
2018-11-03T05:56:46.558Z,80
2018-11-03T05:57:56.585Z,96
2018-11-03T05:59:06.533Z,108
2018-11-03T06:00:16.250Z,124
2018-11-03T06:01:25.974Z,136
2018-11-03T06:02:35.680Z,152
2018-11-03T06:03:45.442Z,168
2018-11-03T06:04:55.426Z,188
2018-11-03T06:06:06.083Z,204
2018-11-03T06:07:16.591Z,224
2018-11-03T06:08:26.301Z,240
2018-11-03T06:09:36.266Z,260
2018-11-03T06:10:45.441Z,288
2018-11-03T06:11:54.895Z,312
2018-11-03T06:13:04.645Z,340
2018-11-03T06:14:14.098Z,368
2018-11-03T06:15:24.366Z,400
2018-11-03T06:16:34.524Z,432
2018-11-03T06:17:44.269Z,468
2018-11-03T06:18:53.993Z,512
2018-11-03T06:20:03.198Z,540
2018-11-03T06:21:13.227Z,564
2018-11-03T06:22:22.816Z,596
2018-11-03T06:23:32.544Z,636
2018-11-03T06:24:42.091Z,692
2018-11-03T06:25:52.087Z,748
2018-11-03T06:27:02.102Z,800
2018-11-03T06:28:12.599Z,848
2018-11-03T06:29:22.366Z,908
2018-11-03T06:30:33.237Z,940
2018-11-03T06:31:42.884Z,984
2018-11-03T06:32:52.351Z,1020
2018-11-03T06:34:01.820Z,1060
2018-11-03T06:35:11.481Z,1108
2018-11-03T06:36:21.602Z,1188
2018-11-03T06:37:31.338Z,1284
2018-11-03T06:38:40.810Z,1364
2018-11-03T06:39:50.333Z,1424
2018-11-03T06:41:00.305Z,1472
2018-11-03T06:42:10.086Z,1524
2018-11-03T06:43:20.080Z,1552
2018-11-03T06:44:30.088Z,1564
2018-11-03T06:45:40.058Z,1600
2018-11-03T06:46:50.458Z,1648
2018-11-03T06:48:00.191Z,1672
2018-11-03T06:49:09.646Z,1700
2018-11-03T06:50:19.123Z,1736
2018-11-03T06:51:29.083Z,1736
2018-11-03T06:52:38.536Z,1712
2018-11-03T06:53:48.374Z,1688
2018-11-03T06:54:59.142Z,1692
2018-11-03T06:56:09.434Z,1712
2018-11-03T06:57:19.139Z,1776
2018-11-03T06:58:28.584Z,1824
2018-11-03T06:59:38.293Z,1860
2018-11-03T07:00:48.038Z,2004
2018-11-03T07:01:58.070Z,2180
2018-11-03T07:03:08.077Z,2292
2018-11-03T07:04:18.066Z,2364
2018-11-03T07:05:27.997Z,2392
2018-11-03T07:06:37.752Z,2404
2018-11-03T07:07:46.936Z,2444
2018-11-03T07:08:56.377Z,2560
2018-11-03T07:10:06.112Z,2784
2018-11-03T07:11:16.213Z,3100
2018-11-03T07:12:27.150Z,3424
2018-11-03T07:13:37.662Z,3712
2018-11-03T07:14:47.107Z,3904
2018-11-03T07:17:07.142Z,4048
2018-11-03T07:18:18.217Z,4140
2018-11-03T07:19:28.430Z,4264
2018-11-03T07:20:37.976Z,4416
2018-11-03T07:21:48.598Z,4580
2018-11-03T07:22:58.432Z,4740
2018-11-03T07:24:08.419Z,4888
2018-11-03T07:25:18.396Z,5036
2018-11-03T07:26:28.096Z,5180
2018-11-03T07:27:38.076Z,5292
2018-11-03T07:28:48.071Z,5436
2018-11-03T07:29:58.457Z,5672
2018-11-03T07:31:08.465Z,5932
2018-11-03T07:32:17.907Z,6156
2018-11-03T07:33:27.642Z,6288
2018-11-03T07:34:37.619Z,6440
2018-11-03T07:35:47.337Z,6616
2018-11-03T07:36:57.323Z,6776
2018-11-03T07:38:07.088Z,6852
2018-11-03T07:39:17.114Z,6880
2018-11-03T07:40:26.759Z,6888
2018-11-03T07:41:37.307Z,6752
2018-11-03T07:42:47.634Z,6548
2018-11-03T07:43:58.457Z,6444
2018-11-03T07:45:08.779Z,6448
2018-11-03T07:46:19.041Z,6416
2018-11-03T07:47:28.758Z,6360
2018-11-03T07:48:39.098Z,6328
2018-11-03T07:49:48.412Z,6372
2018-11-03T07:50:57.860Z,6500
2018-11-03T07:52:07.563Z,6628
2018-11-03T07:53:17.024Z,6732
2018-11-03T07:54:26.872Z,6708
2018-11-03T07:55:37.060Z,6748
2018-11-03T07:56:46.494Z,6884
2018-11-03T07:57:56.531Z,7136
2018-11-03T07:59:06.637Z,7408
2018-11-03T08:00:16.436Z,7696
2018-11-03T08:01:26.064Z,7980
2018-11-03T08:02:35.796Z,8164
2018-11-03T08:03:45.515Z,8260
2018-11-03T08:04:55.238Z,8268
2018-11-03T08:06:04.678Z,8336
2018-11-03T08:07:14.409Z,8472
2018-11-03T08:08:23.858Z,8504
2018-11-03T08:09:33.301Z,8384
2018-11-03T08:10:43.388Z,8296
2018-11-03T08:11:54.157Z,8216
2018-11-03T08:13:04.052Z,8100
2018-11-03T08:14:14.043Z,7980
2018-11-03T08:15:23.790Z,7804
2018-11-03T08:16:33.525Z,7624
2018-11-03T08:17:42.977Z,7608
2018-11-03T08:18:52.433Z,7700
2018-11-03T08:20:02.164Z,7920
2018-11-03T08:21:11.625Z,8160
2018-11-03T08:22:21.611Z,8544
2018-11-03T08:23:31.326Z,9084
2018-11-03T08:24:41.066Z,9744
2018-11-03T08:25:50.775Z,10348
2018-11-03T08:27:00.762Z,10632
2018-11-03T08:28:10.770Z,10840
2018-11-03T08:29:20.233Z,10536
2018-11-03T08:30:29.680Z,12476
2018-11-03T08:31:40.058Z,10556
2018-11-03T08:32:50.143Z,10600
2018-11-03T08:33:59.859Z,10600
2018-11-03T08:35:09.760Z,10412
2018-11-03T08:36:19.941Z,10296
2018-11-03T08:37:29.905Z,10508
2018-11-03T08:38:39.360Z,11044
2018-11-03T08:39:49.384Z,11444
2018-11-03T08:40:59.401Z,11620
2018-11-03T08:42:09.121Z,11660
2018-11-03T08:43:18.576Z,12008
2018-11-03T08:44:28.585Z,12528
2018-11-03T08:45:38.049Z,12956
2018-11-03T08:46:47.752Z,13556
2018-11-03T08:47:57.831Z,13484
2018-11-03T08:49:07.627Z,13612
2018-11-03T08:50:17.617Z,13652
2018-11-03T08:51:27.350Z,13468
2018-11-03T08:52:37.066Z,13552
2018-11-03T08:53:46.583Z,13672
2018-11-03T08:54:56.023Z,13788
2018-11-03T08:56:05.477Z,13908
2018-11-03T08:57:15.471Z,14060
2018-11-03T08:58:25.875Z,14060
2018-11-03T08:59:36.936Z,14252
2018-11-03T09:00:46.328Z,14532
2018-11-03T09:01:56.041Z,14636
2018-11-03T09:03:05.508Z,14780
2018-11-03T09:04:14.991Z,14700
2018-11-03T09:05:24.771Z,14384
2018-11-03T09:06:34.518Z,14472
2018-11-03T09:07:44.513Z,14900
2018-11-03T09:08:54.028Z,15376
2018-11-03T09:10:03.791Z,15576
2018-11-03T09:11:13.529Z,15688
2018-11-03T09:12:23.282Z,15760
2018-11-03T09:13:32.735Z,15472
2018-11-03T09:14:42.589Z,14984
2018-11-03T09:15:52.635Z,14520
2018-11-03T09:17:02.615Z,14504
2018-11-03T09:18:12.082Z,14728
2018-11-03T09:19:21.813Z,15116
2018-11-03T09:20:31.541Z,15204
2018-11-03T09:21:42.050Z,15032
2018-11-03T09:22:52.637Z,14904
2018-11-03T09:24:01.831Z,14900
2018-11-03T09:25:11.564Z,14876
2018-11-03T09:26:21.285Z,15032
2018-11-03T09:27:31.022Z,15736
2018-11-03T09:28:40.491Z,16248
2018-11-03T09:29:49.913Z,16972
2018-11-03T09:30:59.881Z,16612
2018-11-03T09:32:09.511Z,16604
2018-11-03T09:33:19.495Z,16424
2018-11-03T09:34:29.623Z,15792
2018-11-03T09:35:39.389Z,15776
2018-11-03T09:36:49.164Z,17408
2018-11-03T09:37:58.910Z,20128
2018-11-03T09:39:08.683Z,22816
2018-11-03T09:40:18.706Z,23456
2018-11-03T09:41:28.430Z,24064
2018-11-03T09:42:38.394Z,25344
2018-11-03T09:43:48.118Z,25312
2018-11-03T09:44:58.310Z,38112
2018-11-03T09:46:09.399Z,24608
2018-11-03T09:47:19.626Z,22656
2018-11-03T09:48:29.340Z,22752
2018-11-03T09:49:39.124Z,23488
2018-11-03T09:50:49.873Z,24448
2018-11-03T09:51:59.884Z,25632
2018-11-03T09:53:08.797Z,23360
2018-11-03T09:54:18.005Z,23232
2018-11-03T09:55:27.992Z,24544
2018-11-03T09:56:38.327Z,28096
2018-11-03T09:57:47.921Z,29760
2018-11-03T09:58:57.691Z,34592
2018-11-03T10:00:07.431Z,32096
2018-11-03T10:01:17.415Z,32960
2018-11-03T10:02:26.913Z,30528
2018-11-03T10:03:36.654Z,40448
2018-11-03T10:04:45.836Z,38080
2018-11-03T10:05:55.568Z,39968
2018-11-03T10:07:05.285Z,36000
2018-11-03T10:08:15.565Z,31104
2018-11-03T10:09:26.058Z,29888
2018-11-03T10:10:35.987Z,28800
2018-11-03T10:11:45.697Z,36000
2018-11-03T10:12:55.687Z,38048
2018-11-03T10:14:05.403Z,29280
2018-11-03T10:15:14.862Z,25408
2018-11-03T10:16:24.585Z,26656
2018-11-03T10:17:34.098Z,32832
2018-11-03T10:18:43.842Z,35904
2018-11-03T10:19:53.547Z,43872
2018-11-03T10:21:03.250Z,29696
2018-11-03T10:22:13.167Z,28544
2018-11-03T10:23:22.932Z,41056
2018-11-03T10:24:32.958Z,42016
2018-11-03T10:25:42.678Z,35168
2018-11-03T10:26:52.710Z,38048
2018-11-03T10:28:02.718Z,37248
2018-11-03T10:29:12.426Z,38816
2018-11-03T10:30:21.902Z,36320
2018-11-03T10:31:31.942Z,42432
2018-11-03T10:32:41.402Z,41344
2018-11-03T10:33:52.802Z,39648
2018-11-03T10:35:02.512Z,58176
2018-11-03T10:36:12.230Z,43328
2018-11-03T10:37:22.232Z,49760
2018-11-03T10:38:32.000Z,36672
2018-11-03T10:39:41.722Z,33952
2018-11-03T10:40:51.778Z,29632
2018-11-03T10:42:01.298Z,31552
2018-11-03T10:43:11.017Z,41248
2018-11-03T10:44:21.004Z,34176
2018-11-03T10:45:30.758Z,31776
2018-11-03T10:46:40.696Z,28064
2018-11-03T10:47:50.422Z,26912
2018-11-03T10:49:00.142Z,25952
2018-11-03T10:50:09.605Z,24800
2018-11-03T10:51:19.316Z,24256
2018-11-03T10:52:29.041Z,24800
2018-11-03T10:53:39.469Z,26304
2018-11-03T10:54:49.033Z,27680
2018-11-03T10:55:59.309Z,26304
2018-11-03T10:57:09.699Z,25216
2018-11-03T10:58:19.459Z,25408
2018-11-03T10:59:29.424Z,25216
2018-11-03T11:00:39.183Z,25984
2018-11-03T11:01:49.202Z,27936
2018-11-03T11:02:58.669Z,28832
2018-11-03T11:04:08.686Z,34944
2018-11-03T11:05:18.719Z,29088
2018-11-03T11:06:28.211Z,29888
2018-11-03T11:07:37.681Z,34336
2018-11-03T11:08:47.410Z,39616
2018-11-03T11:09:56.910Z,55776
2018-11-03T11:11:06.648Z,42560
2018-11-03T11:12:16.645Z,37440
2018-11-03T11:13:26.366Z,39808
2018-11-03T11:14:36.188Z,33920
2018-11-03T11:15:46.324Z,32096
2018-11-03T11:16:56.092Z,30368
2018-11-03T11:18:06.344Z,28288
2018-11-03T11:19:16.922Z,26304
2018-11-03T11:20:26.918Z,25536
2018-11-03T11:21:37.094Z,25152
2018-11-03T11:22:46.810Z,24064
2018-11-03T11:23:57.154Z,23968
2018-11-03T11:25:08.442Z,26976
2018-11-03T11:26:17.439Z,28000
2018-11-03T11:27:26.929Z,29248
2018-11-03T11:28:36.637Z,31008
2018-11-03T11:29:46.373Z,32672
2018-11-03T11:30:56.102Z,34144
2018-11-03T11:32:05.560Z,36192
2018-11-03T11:33:15.401Z,39136
2018-11-03T11:34:24.862Z,33664
2018-11-03T11:35:34.609Z,32512
2018-11-03T11:36:43.779Z,33568
2018-11-03T11:37:53.251Z,78560
2018-11-03T11:39:03.020Z,39488
2018-11-03T11:40:12.495Z,39712
2018-11-03T11:41:21.435Z,36320
2018-11-03T11:42:31.446Z,44768
2018-11-03T11:43:40.922Z,51424
2018-11-03T11:44:51.519Z,64128
2018-11-03T11:46:01.778Z,35104
2018-11-03T11:47:11.756Z,41632
2018-11-03T11:48:21.215Z,25376
2018-11-03T11:49:31.281Z,24192
2018-11-03T11:50:41.012Z,24192
2018-11-03T11:51:50.745Z,24608
2018-11-03T11:53:00.465Z,25472
2018-11-03T11:54:10.485Z,24448
2018-11-03T11:55:19.711Z,24480
2018-11-03T11:56:29.725Z,23296
2018-11-03T11:57:39.452Z,21632
2018-11-03T11:58:49.218Z,21024
2018-11-03T11:59:58.963Z,20736
2018-11-03T12:01:08.991Z,21152
2018-11-03T12:02:19.551Z,24288
2018-11-03T12:03:29.774Z,20576
2018-11-03T12:04:39.496Z,18912
2018-11-03T12:05:48.945Z,18464
2018-11-03T12:06:58.946Z,18816
2018-11-03T12:08:08.682Z,19680
2018-11-03T12:09:18.410Z,20192
2018-11-03T12:10:28.720Z,20672
2018-11-03T12:11:38.294Z,20416
2018-11-03T12:12:48.488Z,19040
2018-11-03T12:13:57.934Z,18272
2018-11-03T12:15:07.705Z,17888
2018-11-03T12:16:18.018Z,18720
2018-11-03T12:17:28.011Z,19488
2018-11-03T12:18:37.216Z,19104
2018-11-03T12:19:47.220Z,18976
2018-11-03T12:20:56.957Z,19488
2018-11-03T12:22:06.741Z,18688
2018-11-03T12:23:16.732Z,16508
2018-11-03T12:24:26.771Z,15180
2018-11-03T12:25:36.429Z,14744
2018-11-03T12:26:46.677Z,13940
2018-11-03T12:27:56.672Z,13772
2018-11-03T12:29:06.397Z,13800
2018-11-03T12:30:15.616Z,13860
2018-11-03T12:31:25.653Z,13948
2018-11-03T12:32:35.431Z,13832
2018-11-03T12:33:45.754Z,14028
2018-11-03T12:34:56.793Z,13852
2018-11-03T12:36:07.147Z,14168
2018-11-03T12:37:17.278Z,15388
2018-11-03T12:38:27.270Z,16308
2018-11-03T12:39:36.790Z,15524
2018-11-03T12:40:46.205Z,14588
2018-11-03T12:41:56.523Z,14736
2018-11-03T12:43:06.526Z,14988
2018-11-03T12:44:16.516Z,16088
2018-11-03T12:45:26.278Z,17216
2018-11-03T12:46:36.275Z,17408
2018-11-03T12:47:46.269Z,17344
2018-11-03T12:48:56.088Z,16484
2018-11-03T12:50:06.181Z,15968
2018-11-03T12:51:16.205Z,15600
2018-11-03T12:52:26.220Z,16132
2018-11-03T12:53:35.957Z,17760
2018-11-03T12:54:45.698Z,20640
2018-11-03T12:55:55.694Z,23008
2018-11-03T12:57:05.160Z,23200
2018-11-03T12:58:16.046Z,22304
2018-11-03T12:59:26.836Z,21152
2018-11-03T13:00:36.722Z,21216
2018-11-03T13:01:46.755Z,21632
2018-11-03T13:02:56.478Z,22624
2018-11-03T13:04:06.222Z,32256
2018-11-03T13:05:17.218Z,26336
2018-11-03T13:06:27.555Z,91520
2018-11-03T13:07:37.548Z,33856
2018-11-03T13:08:47.006Z,29440
2018-11-03T13:09:57.113Z,22304
2018-11-03T13:11:06.929Z,21280
2018-11-03T13:12:17.356Z,19712
2018-11-03T13:13:27.249Z,18880
2018-11-03T13:14:37.206Z,17920
2018-11-03T13:15:46.783Z,17344
2018-11-03T13:16:56.821Z,17248
2018-11-03T13:18:06.797Z,17760
2018-11-03T13:19:16.497Z,19296
2018-11-03T13:20:26.206Z,29920
2018-11-03T13:21:35.906Z,21280
2018-11-03T13:22:46.077Z,21472
2018-11-03T13:23:56.205Z,24000
2018-11-03T13:25:05.388Z,41824
2018-11-03T13:26:15.088Z,23648
2018-11-03T13:27:24.530Z,22400
2018-11-03T13:28:34.220Z,21600
2018-11-03T13:29:43.912Z,21216
2018-11-03T13:30:53.613Z,21184
2018-11-03T13:32:03.579Z,19424
2018-11-03T13:33:13.016Z,18752
2018-11-03T13:34:22.715Z,19136
2018-11-03T13:35:32.683Z,19840
2018-11-03T13:36:42.112Z,20160
2018-11-03T13:37:51.816Z,20320
2018-11-03T13:39:01.557Z,20320
2018-11-03T13:40:10.998Z,20000
2018-11-03T13:41:20.700Z,21440
2018-11-03T13:42:30.657Z,20832
2018-11-03T13:43:40.643Z,20000
2018-11-03T13:44:50.072Z,23744
2018-11-03T13:46:00.037Z,20960
2018-11-03T13:47:10.195Z,18048
2018-11-03T13:48:20.345Z,16736
2018-11-03T13:49:29.787Z,15256
2018-11-03T13:50:39.497Z,14168
2018-11-03T13:51:49.198Z,13096
2018-11-03T13:52:58.906Z,12284
2018-11-03T13:54:08.630Z,11844
2018-11-03T13:55:18.082Z,13404
2018-11-03T13:56:28.055Z,11772
2018-11-03T13:57:37.225Z,11712
2018-11-03T13:58:46.916Z,11588
2018-11-03T13:59:56.358Z,11716
2018-11-03T14:01:05.799Z,12112
2018-11-03T14:02:15.772Z,12248
2018-11-03T14:03:25.733Z,12060
2018-11-03T14:04:35.186Z,11932
2018-11-03T14:05:44.870Z,11892
2018-11-03T14:06:54.587Z,15520
2018-11-03T14:08:04.277Z,11924
2018-11-03T14:09:13.985Z,11940
2018-11-03T14:10:23.936Z,12148
2018-11-03T14:11:33.627Z,12248
2018-11-03T14:12:43.315Z,12636
2018-11-03T14:13:53.300Z,13100
2018-11-03T14:15:03.263Z,13532
2018-11-03T14:16:13.225Z,13436
2018-11-03T14:17:22.650Z,12824
2018-11-03T14:18:31.730Z,13072
2018-11-03T14:19:41.423Z,14344
2018-11-03T14:20:51.375Z,12064
2018-11-03T14:22:01.333Z,11908
2018-11-03T14:23:11.085Z,11632
2018-11-03T14:24:20.877Z,13192
2018-11-03T14:25:30.305Z,11220
2018-11-03T14:26:39.761Z,11432
2018-11-03T14:27:49.827Z,14464
2018-11-03T14:28:59.879Z,10724
2018-11-03T14:30:09.961Z,10396
2018-11-03T14:31:19.404Z,10888
2018-11-03T14:32:29.373Z,10004
2018-11-03T14:33:39.037Z,11452
2018-11-03T14:34:48.989Z,16864
2018-11-03T14:35:58.695Z,13760
2018-11-03T14:37:07.604Z,10108
2018-11-03T14:38:17.566Z,13528
2018-11-03T14:39:27.314Z,12664
2018-11-03T14:40:36.749Z,10780
2018-11-03T14:41:46.187Z,9300
2018-11-03T14:42:55.887Z,9480
2018-11-03T14:44:05.579Z,10832
2018-11-03T14:45:15.722Z,8872
2018-11-03T14:46:25.549Z,8476
2018-11-03T14:47:35.256Z,8064
2018-11-03T14:48:44.972Z,7672
2018-11-03T14:49:54.917Z,7528
2018-11-03T14:51:04.833Z,8232
2018-11-03T14:52:15.135Z,8112
2018-11-03T14:53:25.319Z,6496
2018-11-03T14:54:35.143Z,6488
2018-11-03T14:55:45.106Z,6080
2018-11-03T14:56:55.193Z,6020
2018-11-03T14:58:04.896Z,5832
2018-11-03T14:59:14.858Z,5576
2018-11-03T15:00:24.032Z,5256
2018-11-03T15:01:33.993Z,4888
2018-11-03T15:02:43.947Z,4580
2018-11-03T15:03:53.125Z,4300
2018-11-03T15:05:02.845Z,4060
2018-11-03T15:06:12.806Z,3812
2018-11-03T15:07:22.502Z,3576
2018-11-03T15:08:32.442Z,3332
2018-11-03T15:09:42.703Z,3100
2018-11-03T15:10:51.907Z,2888
2018-11-03T15:12:01.608Z,2716
2018-11-03T15:13:11.039Z,2564
2018-11-03T15:14:22.063Z,2404
2018-11-03T15:15:32.493Z,2236
2018-11-03T15:16:42.455Z,2088
2018-11-03T15:17:51.641Z,1960
2018-11-03T15:19:01.373Z,1844
2018-11-03T15:20:11.090Z,1740
2018-11-03T15:21:21.059Z,1628
2018-11-03T15:22:31.337Z,1512
2018-11-03T15:23:40.870Z,1396
2018-11-03T15:24:50.048Z,1280
2018-11-03T15:25:58.972Z,1168
2018-11-03T15:27:08.908Z,1064
2018-11-03T15:28:18.874Z,968
2018-11-03T15:29:28.565Z,884
2018-11-03T15:30:38.550Z,816
2018-11-03T15:31:47.994Z,744
2018-11-03T15:32:57.691Z,684
2018-11-03T15:34:07.648Z,628
2018-11-03T15:35:17.955Z,576
2018-11-03T15:36:27.670Z,528
2018-11-03T15:37:37.104Z,484
2018-11-03T15:38:46.822Z,448
2018-11-03T15:39:56.784Z,408
2018-11-03T15:41:06.508Z,368
2018-11-03T15:42:16.250Z,328
2018-11-03T15:43:25.443Z,292
2018-11-03T15:44:34.892Z,252
2018-11-03T15:45:44.330Z,220
2018-11-03T15:46:54.290Z,188
2018-11-03T15:48:04.184Z,160
2018-11-03T15:49:13.892Z,136
2018-11-03T15:50:23.589Z,116
2018-11-03T15:51:33.542Z,92
2018-11-03T15:52:42.981Z,76
2018-11-03T15:53:52.964Z,64
2018-11-03T15:55:02.400Z,52